Time;durP1;ratioP1;P1;durP2;ratioP2;P2;SDS_P1;SDS_P2;PMS_P1;PMS_P2;Temp;Humidity;BMP_temperature;BMP_pressure;BME280_temperature;BME280_humidity;BME280_pressure;Samples;Min_cycle;Max_cycle;Signal;HPM_P1;HPM_P2
2022/06/02 00:00:18;;;;;;;9.35;8.55;;;12.40;99.90;;;;;;5104788;28;20085;-56
2022/06/02 00:03:24;;;;;;;9.45;8.65;;;12.20;99.90;;;;;;5115072;28;20093;-54
2022/06/02 00:06:50;;;;;;;9.43;8.55;;;12.10;99.90;;;;;;5109743;28;20031;-51
2022/06/02 00:09:52;;;;;;;9.57;8.67;;;12.00;99.90;;;;;;5113604;28;20110;-51
2022/06/02 00:12:47;;;;;;;9.35;8.38;;;12.00;99.90;;;;;;5098566;28;20401;-54
2022/06/02 00:15:37;;;;;;;9.95;8.88;;;11.80;99.90;;;;;;5078529;28;20078;-53
2022/06/02 00:18:29;;;;;;;9.20;8.30;;;12.00;99.90;;;;;;5094862;28;20098;-52
2022/06/02 00:21:36;;;;;;;9.25;8.45;;;12.00;99.90;;;;;;5096377;28;20074;-53
2022/06/02 00:24:32;;;;;;;9.35;8.55;;;12.10;99.90;;;;;;5085691;28;20102;-55
2022/06/02 00:27:25;;;;;;;9.45;8.48;;;12.20;99.90;;;;;;5098853;28;20450;-52
2022/06/02 00:30:23;;;;;;;9.60;8.70;;;12.20;99.90;;;;;;5094438;28;20534;-54
2022/06/02 00:33:25;;;;;;;8.95;8.00;;;12.10;99.90;;;;;;5095408;28;20577;-55
2022/06/02 00:36:21;;;;;;;9.32;8.50;;;12.10;99.90;;;;;;5114053;28;20089;-54
2022/06/02 00:39:08;;;;;;;9.27;8.48;;;12.00;99.90;;;;;;5113332;27;20031;-59
2022/06/02 00:41:52;;;;;;;8.63;7.78;;;11.90;99.90;;;;;;5104543;28;20074;-50
2022/06/02 00:44:51;;;;;;;9.65;8.10;;;11.90;99.90;;;;;;5097270;28;20108;-56
2022/06/02 00:47:45;;;;;;;8.75;7.97;;;11.90;99.90;;;;;;5112458;28;20034;-54
2022/06/02 00:50:48;;;;;;;9.65;7.90;;;11.80;99.90;;;;;;5116948;28;20428;-56
2022/06/02 00:57:44;;;;;;;8.57;7.72;;;11.80;99.90;;;;;;5121711;27;20034;-55
2022/06/02 01:00:49;;;;;;;7.88;7.18;;;11.80;99.90;;;;;;5108757;28;20402;-52
2022/06/02 01:03:39;;;;;;;8.23;7.57;;;11.80;99.90;;;;;;5113977;28;20023;-52
2022/06/02 01:06:43;;;;;;;7.65;6.95;;;11.90;99.90;;;;;;5112890;28;20081;-54
2022/06/02 01:09:37;;;;;;;8.90;7.75;;;12.00;99.90;;;;;;5098155;28;20098;-52
2022/06/02 01:12:39;;;;;;;8.27;7.47;;;12.10;99.90;;;;;;5092669;28;20454;-54
2022/06/02 01:15:53;;;;;;;8.15;7.45;;;12.10;99.90;;;;;;5111834;28;20536;-49
2022/06/02 01:19:20;;;;;;;8.20;7.50;;;12.10;99.90;;;;;;5097674;28;20430;-53
2022/06/02 01:22:15;;;;;;;;;;;12.00;99.90;;;;;;5087818;28;20046;-52
2022/06/02 01:25:36;;;;;;;7.95;7.25;;;12.00;99.90;;;;;;5113179;28;20376;-48
2022/06/02 01:28:30;;;;;;;8.05;7.28;;;12.00;99.90;;;;;;5094127;28;20050;-48
2022/06/02 01:31:30;;;;;;;8.55;7.68;;;12.00;99.90;;;;;;5101156;28;20102;-50
2022/06/02 01:34:41;;;;;;;8.77;8.00;;;11.90;99.90;;;;;;5093489;28;20035;-50
2022/06/02 01:37:46;;;;;;;8.55;7.75;;;11.80;99.90;;;;;;5095627;28;20035;-53
2022/06/02 01:40:46;;;;;;;10.02;9.13;;;11.70;99.90;;;;;;5113940;28;20043;-48
2022/06/02 01:44:02;;;;;;;9.25;8.45;;;11.60;99.90;;;;;;5114413;27;20074;-53
2022/06/02 01:46:46;;;;;;;;;;;11.50;99.90;;;;;;5112928;28;20448;-53
2022/06/02 01:49:48;;;;;;;8.38;7.60;;;11.50;99.90;;;;;;5113035;28;20528;-53
2022/06/02 01:52:38;;;;;;;9.38;8.57;;;11.50;99.90;;;;;;5110333;28;20103;-48
2022/06/02 01:55:48;;;;;;;11.13;8.85;;;11.40;99.90;;;;;;5103974;28;20120;-48
2022/06/02 01:59:01;;;;;;;10.65;9.55;;;11.40;99.90;;;;;;5092838;28;20141;-47
2022/06/02 02:01:52;;;;;;;9.73;8.90;;;11.30;99.90;;;;;;5112679;27;20089;-48
2022/06/02 02:05:13;;;;;;;9.45;8.55;;;11.20;99.90;;;;;;5102537;28;20026;-51
2022/06/02 02:08:03;;;;;;;11.48;10.40;;;11.20;99.90;;;;;;5091907;28;20059;-56
2022/06/02 02:11:27;;;;;;;12.98;11.73;;;11.20;99.90;;;;;;5122422;27;20034;-52
2022/06/02 02:14:25;;;;;;;12.07;10.98;;;11.20;99.90;;;;;;5109512;27;20039;-53
2022/06/02 02:17:28;;;;;;;10.52;9.52;;;11.20;99.90;;;;;;5092183;28;20534;-50
2022/06/02 02:20:27;;;;;;;9.70;8.90;;;11.20;99.90;;;;;;5077772;28;20075;-49
2022/06/02 02:23:32;;;;;;;13.25;9.02;;;11.10;99.90;;;;;;5105854;28;20093;-51
2022/06/02 02:26:30;;;;;;;9.93;9.10;;;10.80;99.90;;;;;;5091735;28;20453;-52
2022/06/02 02:29:58;;;;;;;10.18;9.00;;;10.80;99.90;;;;;;5092121;28;20035;-52
2022/06/02 02:33:16;;;;;;;11.00;9.95;;;10.70;99.90;;;;;;5009736;28;20057;-53
2022/06/02 02:36:19;;;;;;;10.48;9.57;;;10.60;99.90;;;;;;5091712;28;20529;-54
2022/06/02 02:39:23;;;;;;;11.43;10.23;;;10.60;99.90;;;;;;5097445;28;20521;-50
2022/06/02 02:42:39;;;;;;;10.63;9.63;;;10.50;99.90;;;;;;5110834;28;20111;-48
2022/06/02 02:45:34;;;;;;;10.02;9.13;;;10.50;99.90;;;;;;5111485;28;20035;-50
2022/06/02 02:48:53;;;;;;;11.18;9.63;;;10.60;99.90;;;;;;5116324;28;20038;-52
2022/06/02 02:51:54;;;;;;;10.57;9.57;;;10.60;99.90;;;;;;5076824;28;20082;-50
2022/06/02 02:54:54;;;;;;;11.52;10.05;;;10.60;99.90;;;;;;5110553;28;20030;-54
2022/06/02 02:58:05;;;;;;;11.30;10.20;;;10.60;99.90;;;;;;5111940;28;20031;-50
2022/06/02 03:01:27;;;;;;;19.48;15.73;;;10.70;99.90;;;;;;5108092;28;20046;-54
2022/06/02 03:04:11;;;;;;;12.45;10.43;;;10.70;99.90;;;;;;5100656;28;20034;-55
2022/06/02 03:06:56;;;;;;;12.27;11.18;;;10.60;99.90;;;;;;5097743;28;20090;-52
2022/06/02 03:10:17;;;;;;;11.77;10.60;;;10.50;99.90;;;;;;5108926;28;20560;-54
2022/06/02 03:13:24;;;;;;;11.98;10.85;;;10.30;99.90;;;;;;5107835;28;20101;-52
2022/06/02 03:16:12;;;;;;;12.77;11.48;;;10.10;99.90;;;;;;5095085;28;20030;-53
2022/06/02 03:19:08;;;;;;;13.15;11.85;;;9.90;99.90;;;;;;5096254;28;20609;-48
2022/06/02 03:22:37;;;;;;;13.88;12.48;;;9.90;99.90;;;;;;5099925;28;20042;-49
2022/06/02 03:25:38;;;;;;;13.32;11.88;;;9.90;99.90;;;;;;5097907;28;20035;-53
2022/06/02 03:28:37;;;;;;;14.60;13.20;;;10.00;99.90;;;;;;5107663;28;20047;-52
2022/06/02 03:31:31;;;;;;;13.00;11.80;;;9.90;99.90;;;;;;5101026;28;20042;-54
2022/06/02 03:34:21;;;;;;;13.38;10.95;;;9.90;99.90;;;;;;5108040;28;20035;-55
2022/06/02 03:37:34;;;;;;;12.70;11.45;;;10.10;99.90;;;;;;5096421;28;20219;-55
2022/06/02 03:40:34;;;;;;;11.80;10.70;;;10.10;99.90;;;;;;5095831;28;20043;-53
2022/06/02 03:43:31;;;;;;;12.10;11.00;;;10.20;99.90;;;;;;5119733;27;20035;-53
2022/06/02 03:46:28;;;;;;;12.77;11.57;;;10.30;99.90;;;;;;5095293;28;20394;-55
2022/06/02 03:49:47;;;;;;;12.35;11.25;;;10.30;99.90;;;;;;5100341;28;20094;-53
2022/06/02 03:52:49;;;;;;;12.35;11.20;;;10.50;99.90;;;;;;5087704;28;20046;-50
2022/06/02 03:56:14;;;;;;;13.13;11.93;;;10.50;99.90;;;;;;5106913;28;20398;-51
2022/06/02 03:59:17;;;;;;;11.57;10.48;;;10.70;99.90;;;;;;5067721;28;20616;-50
2022/06/02 04:02:07;;;;;;;13.07;11.77;;;10.80;99.90;;;;;;5114065;28;20552;-52
2022/06/02 04:05:24;;;;;;;12.55;11.38;;;10.90;99.90;;;;;;5102750;28;20031;-54
2022/06/02 04:08:38;;;;;;;12.73;11.43;;;11.00;99.90;;;;;;5111986;28;20039;-55
2022/06/02 04:14:52;;;;;;;15.68;13.82;;;11.10;99.90;;;;;;5107470;28;20536;-51
2022/06/02 04:18:03;;;;;;;13.55;12.15;;;11.20;99.90;;;;;;5114794;28;20088;-50
2022/06/02 04:20:59;;;;;;;15.68;12.57;;;11.20;99.90;;;;;;5114521;28;20038;-53
2022/06/02 04:23:58;;;;;;;14.20;12.73;;;11.10;99.90;;;;;;5110385;28;20071;-53
2022/06/02 04:27:01;;;;;;;12.77;11.52;;;10.90;99.90;;;;;;5101097;28;20085;-55
2022/06/02 04:30:04;;;;;;;13.27;11.88;;;11.10;99.90;;;;;;5114749;28;20061;-52
2022/06/02 04:33:12;;;;;;;14.90;13.45;;;11.10;99.90;;;;;;5114993;28;20105;-53
2022/06/02 04:36:27;;;;;;;16.00;11.90;;;11.10;99.90;;;;;;5078549;28;20038;-53
2022/06/02 04:39:52;;;;;;;15.23;12.52;;;11.20;99.90;;;;;;5095485;28;20419;-49
2022/06/02 04:42:45;;;;;;;15.45;13.90;;;11.30;99.90;;;;;;5104093;27;20033;-55
2022/06/02 04:45:41;;;;;;;15.48;13.32;;;11.40;99.90;;;;;;5093659;28;20055;-49
2022/06/02 04:48:47;;;;;;;14.93;13.30;;;11.50;99.90;;;;;;5098241;28;20486;-54
2022/06/02 04:51:55;;;;;;;14.65;13.35;;;11.50;99.90;;;;;;5099193;28;20030;-55
2022/06/02 04:54:52;;;;;;;16.40;13.05;;;11.60;99.90;;;;;;5110796;28;20031;-55
2022/06/02 04:58:00;;;;;;;14.40;12.95;;;11.50;99.90;;;;;;5114944;28;20085;-56
2022/06/02 05:01:22;;;;;;;14.80;13.30;;;11.50;99.90;;;;;;5106653;28;20085;-53
2022/06/02 05:04:22;;;;;;;14.05;12.75;;;11.60;99.90;;;;;;5113558;28;20038;-52
2022/06/02 05:07:19;;;;;;;17.15;14.07;;;11.60;99.90;;;;;;5108500;28;20038;-50
2022/06/02 05:10:19;;;;;;;15.20;13.65;;;11.60;99.90;;;;;;5099646;28;20150;-52
2022/06/02 05:13:10;;;;;;;15.73;14.15;;;11.60;99.90;;;;;;5113845;28;20042;-48
2022/06/02 05:16:21;;;;;;;18.77;15.20;;;11.60;99.90;;;;;;5101927;28;20482;-54
2022/06/02 05:19:24;;;;;;;15.57;14.10;;;11.70;99.90;;;;;;5101805;28;20034;-51
2022/06/02 05:23:01;;;;;;;18.17;16.38;;;11.70;99.90;;;;;;5102551;28;21060;-52
2022/06/02 05:26:06;;;;;;;17.35;15.60;;;11.60;99.90;;;;;;5097200;27;20163;-52
2022/06/02 05:29:03;;;;;;;17.17;15.48;;;11.80;99.90;;;;;;5102099;28;20362;-52
2022/06/02 05:32:02;;;;;;;17.02;15.43;;;11.90;99.90;;;;;;5093697;28;20115;-53
2022/06/02 05:34:46;;;;;;;17.08;15.43;;;11.90;99.90;;;;;;5110325;28;20568;-53
2022/06/02 05:37:41;;;;;;;19.83;15.87;;;11.90;99.90;;;;;;5112331;28;20122;-51
2022/06/02 05:40:38;;;;;;;18.75;15.73;;;12.00;99.90;;;;;;5116963;27;20512;-53
2022/06/02 05:43:40;;;;;;;16.75;15.05;;;11.90;99.90;;;;;;5117698;27;20031;-49
2022/06/02 05:46:46;;;;;;;17.60;15.85;;;12.00;99.90;;;;;;5092919;28;20035;-56
2022/06/02 05:49:48;;;;;;;;;;;12.00;99.90;;;;;;5105127;28;20150;-52
2022/06/02 05:52:38;;;;;;;17.15;14.60;;;12.10;99.90;;;;;;5109124;28;19910;-55
2022/06/02 05:56:03;;;;;;;14.52;12.10;;;12.30;99.90;;;;;;5113762;28;20119;-52
2022/06/02 05:59:25;;;;;;;14.18;12.82;;;12.40;99.90;;;;;;5099429;28;20082;-53
2022/06/02 06:02:36;;;;;;;12.10;10.98;;;12.40;99.90;;;;;;5092618;28;20055;-53
2022/06/02 06:05:47;;;;;;;14.43;11.82;;;12.50;99.90;;;;;;5095669;28;20022;-53
2022/06/02 06:08:55;;;;;;;12.07;10.98;;;12.60;99.90;;;;;;5112675;28;20442;-57
2022/06/02 06:12:09;;;;;;;11.85;10.60;;;12.50;99.90;;;;;;5107989;28;20454;-49
2022/06/02 06:15:23;;;;;;;12.07;10.88;;;12.60;99.90;;;;;;5107655;28;20042;-52
2022/06/02 06:18:35;;;;;;;12.43;11.13;;;12.70;99.90;;;;;;5092568;28;20085;-53
2022/06/02 06:21:56;;;;;;;9.85;8.85;;;13.00;99.90;;;;;;5092347;28;20071;-52
2022/06/02 06:24:50;;;;;;;11.07;10.07;;;13.00;99.90;;;;;;5101824;28;20108;-54
2022/06/02 06:27:38;;;;;;;10.70;9.70;;;12.90;99.90;;;;;;5112366;28;20089;-50
2022/06/02 06:30:42;;;;;;;10.80;9.77;;;13.10;99.90;;;;;;5109802;28;20046;-53
2022/06/02 06:34:06;;;;;;;11.35;10.25;;;12.90;99.90;;;;;;5113679;27;20063;-52
2022/06/02 06:37:21;;;;;;;11.95;10.75;;;13.00;99.90;;;;;;5024022;28;20094;-56
2022/06/02 06:40:37;;;;;;;12.70;11.45;;;13.00;99.90;;;;;;5098299;28;20502;-55
2022/06/02 06:44:02;;;;;;;11.25;10.05;;;12.80;99.90;;;;;;5116561;28;20025;-53
2022/06/02 06:47:14;;;;;;;11.48;10.02;;;13.00;99.90;;;;;;5111609;28;20050;-53
2022/06/02 06:50:39;;;;;;;12.13;10.98;;;13.10;99.90;;;;;;5101572;28;20023;-53
2022/06/02 06:53:36;;;;;;;12.60;11.38;;;13.30;99.90;;;;;;5004335;28;20094;-51
2022/06/02 06:56:22;;;;;;;11.77;10.57;;;13.20;99.90;;;;;;5092778;28;20114;-54
2022/06/02 06:59:32;;;;;;;12.50;11.32;;;13.40;99.90;;;;;;5096238;28;20149;-53
2022/06/02 07:02:43;;;;;;;12.98;11.68;;;13.40;99.90;;;;;;5115176;28;20407;-55
2022/06/02 07:05:44;;;;;;;12.45;11.10;;;13.30;99.90;;;;;;5080205;28;20035;-52
2022/06/02 07:08:39;;;;;;;13.40;10.18;;;13.50;99.90;;;;;;5102591;28;20058;-52
2022/06/02 07:15:19;;;;;;;11.25;10.15;;;14.00;99.90;;;;;;5113531;28;20027;-56
2022/06/02 07:18:12;;;;;;;10.45;9.45;;;14.10;99.90;;;;;;5125581;27;20092;-54
2022/06/02 07:21:18;;;;;;;13.68;10.95;;;14.40;99.50;;;;;;5090899;28;20026;-48
2022/06/02 07:24:24;;;;;;;12.05;10.93;;;14.20;99.30;;;;;;5105943;28;20027;-53
2022/06/02 07:27:21;;;;;;;12.88;11.73;;;14.00;99.90;;;;;;5097693;28;20039;-50
2022/06/02 07:30:20;;;;;;;14.07;12.77;;;14.00;99.40;;;;;;5095543;28;20059;-51
2022/06/02 07:33:04;;;;;;;11.02;9.93;;;13.90;99.40;;;;;;5080802;28;20109;-50
2022/06/02 07:36:10;;;;;;;12.50;10.32;;;14.10;98.80;;;;;;5095114;28;20027;-54
2022/06/02 07:38:59;;;;;;;11.88;10.68;;;14.10;99.10;;;;;;5095802;28;20035;-51
2022/06/02 07:42:21;;;;;;;10.73;9.70;;;14.10;98.70;;;;;;5114289;27;20070;-56
2022/06/02 07:45:24;;;;;;;9.98;8.95;;;14.20;97.80;;;;;;5116475;27;20406;-50
2022/06/02 07:48:15;;;;;;;11.15;10.15;;;14.40;97.60;;;;;;5121070;27;20031;-53
2022/06/02 07:51:04;;;;;;;10.18;9.18;;;14.50;97.90;;;;;;5117128;27;20081;-50
2022/06/02 07:54:03;;;;;;;10.05;9.02;;;14.50;97.90;;;;;;5120039;27;20091;-53
2022/06/02 07:57:00;;;;;;;10.27;9.20;;;14.50;97.00;;;;;;5139707;27;20107;-51
2022/06/02 08:00:03;;;;;;;14.07;9.88;;;14.60;97.30;;;;;;5138767;27;20438;-55
2022/06/02 08:03:02;;;;;;;9.38;7.93;;;14.60;97.40;;;;;;5135350;27;20394;-54
2022/06/02 08:05:51;;;;;;;9.63;8.73;;;15.00;97.40;;;;;;5134838;27;20033;-53
2022/06/02 08:08:43;;;;;;;10.10;8.30;;;15.10;97.00;;;;;;5117916;27;20030;-55
2022/06/02 08:11:48;;;;;;;9.75;8.73;;;15.00;97.10;;;;;;5122036;27;20571;-53
2022/06/02 08:14:48;;;;;;;9.52;8.57;;;14.70;97.00;;;;;;5133854;27;20030;-49
2022/06/02 08:17:36;;;;;;;8.95;8.05;;;14.40;98.00;;;;;;5133236;27;20041;-53
2022/06/02 08:20:35;;;;;;;8.68;7.78;;;14.10;98.60;;;;;;5134132;27;20034;-49
2022/06/02 08:23:28;;;;;;;8.95;8.05;;;14.60;97.60;;;;;;5113380;28;20081;-54
2022/06/02 08:26:19;;;;;;;7.65;6.68;;;15.20;96.90;;;;;;5110943;27;20038;-51
2022/06/02 08:29:21;;;;;;;7.22;6.53;;;15.60;96.10;;;;;;5111696;28;20022;-51
2022/06/02 08:32:14;;;;;;;7.18;6.43;;;15.70;95.50;;;;;;5095784;28;20552;-53
2022/06/02 08:35:07;;;;;;;7.07;6.38;;;15.50;95.30;;;;;;5113369;28;20089;-53
2022/06/02 08:38:23;;;;;;;7.35;5.57;;;15.00;95.00;;;;;;5111764;28;20034;-54
2022/06/02 08:41:30;;;;;;;6.72;5.85;;;15.20;95.10;;;;;;5104523;28;20428;-52
2022/06/02 08:44:39;;;;;;;5.55;4.93;;;15.50;94.40;;;;;;5118986;27;20548;-54
2022/06/02 08:48:10;;;;;;;5.97;5.38;;;15.70;92.90;;;;;;5125547;27;20035;-50
2022/06/02 08:51:22;;;;;;;5.45;4.95;;;15.60;92.90;;;;;;5134639;27;20074;-53
2022/06/02 08:54:32;;;;;;;7.47;5.82;;;15.60;92.60;;;;;;5116918;27;20034;-51
2022/06/02 08:57:46;;;;;;;6.35;5.45;;;15.60;92.60;;;;;;5098786;28;20031;-55
2022/06/02 09:01:21;;;;;;;6.70;5.20;;;15.70;93.00;;;;;;5100515;28;20054;-55
2022/06/02 09:04:24;;;;;;;5.57;4.95;;;15.90;93.00;;;;;;5071519;28;20154;-52
2022/06/02 09:07:49;;;;;;;6.57;5.13;;;16.10;93.00;;;;;;5114016;28;20031;-55
2022/06/02 09:11:07;;;;;;;6.05;4.82;;;16.00;92.60;;;;;;5113133;27;20568;-56
2022/06/02 09:14:32;;;;;;;5.57;5.05;;;16.20;92.10;;;;;;5114224;27;20035;-55
2022/06/02 09:18:05;;;;;;;8.23;5.15;;;15.80;92.10;;;;;;5117922;27;20057;-55
2022/06/02 09:21:14;;;;;;;6.40;5.80;;;15.70;92.40;;;;;;5030957;28;20083;-56
2022/06/02 09:24:05;;;;;;;5.70;4.60;;;15.60;92.60;;;;;;5031900;28;20048;-53
2022/06/02 09:27:37;;;;;;;6.13;5.50;;;16.10;92.60;;;;;;5117825;27;20074;-52
2022/06/02 09:30:53;;;;;;;5.50;4.90;;;16.60;91.80;;;;;;5031992;28;20043;-52
2022/06/02 09:33:43;;;;;;;;;;;16.70;91.30;;;;;;5116007;27;20370;-52
2022/06/02 09:36:48;;;;;;;9.90;5.28;;;16.60;90.30;;;;;;5113028;27;19957;-52
2022/06/02 09:39:38;;;;;;;8.77;5.43;;;17.10;90.10;;;;;;5121559;27;20097;-50
2022/06/02 09:42:31;;;;;;;8.85;5.45;;;17.20;89.20;;;;;;5120527;27;20154;-48
2022/06/02 09:45:40;;;;;;;6.50;5.43;;;17.30;90.20;;;;;;5111571;27;20031;-50
2022/06/02 09:48:39;;;;;;;9.38;6.55;;;17.10;91.10;;;;;;5112102;28;20030;-50
2022/06/02 09:51:36;;;;;;;6.50;5.47;;;17.00;90.60;;;;;;5097115;28;20066;-51
2022/06/02 09:54:30;;;;;;;6.10;5.50;;;16.80;91.00;;;;;;5112185;28;20642;-52
2022/06/02 10:00:50;;;;;;;6.90;4.45;;;17.20;90.70;;;;;;5109203;28;20026;-54
2022/06/02 10:03:54;;;;;;;12.57;5.32;;;17.40;88.30;;;;;;5112155;28;20112;-49
2022/06/02 10:06:53;;;;;;;6.28;5.68;;;17.70;86.80;;;;;;5111931;28;20074;-52
2022/06/02 10:10:05;;;;;;;8.40;5.55;;;17.40;86.10;;;;;;5111231;28;20030;-51
2022/06/02 10:13:15;;;;;;;6.07;4.70;;;17.30;87.70;;;;;;5109827;28;20039;-52
2022/06/02 10:16:14;;;;;;;6.32;5.65;;;17.60;87.50;;;;;;5108844;28;20033;-48
2022/06/02 10:19:17;;;;;;;6.93;6.22;;;17.20;90.00;;;;;;5095915;28;20104;-56
2022/06/02 10:22:20;;;;;;;8.45;5.53;;;16.70;90.50;;;;;;5105361;28;20121;-55
2022/06/02 10:25:31;;;;;;;6.40;5.10;;;16.60;90.20;;;;;;5120894;27;20147;-52
2022/06/02 10:28:38;;;;;;;5.10;4.60;;;16.60;88.30;;;;;;5100769;28;20110;-53
2022/06/02 10:31:34;;;;;;;4.85;4.45;;;16.80;87.90;;;;;;5108937;28;20039;-55
2022/06/02 10:34:34;;;;;;;5.72;4.60;;;17.00;88.10;;;;;;5112705;28;20054;-53
2022/06/02 10:37:49;;;;;;;5.93;5.05;;;17.50;87.00;;;;;;5111876;28;20367;-53
2022/06/02 10:40:56;;;;;;;6.03;4.32;;;17.60;86.50;;;;;;5096373;28;20107;-57
2022/06/02 10:43:55;;;;;;;5.40;4.90;;;17.50;86.50;;;;;;5117407;28;20030;-53
2022/06/02 10:46:59;;;;;;;5.32;4.82;;;17.20;87.80;;;;;;5091675;28;20039;-56
2022/06/02 10:50:00;;;;;;;5.68;4.82;;;17.30;88.30;;;;;;5099188;28;20111;-58
2022/06/02 10:53:09;;;;;;;6.60;4.63;;;17.50;87.10;;;;;;5111888;28;20058;-53
2022/06/02 10:56:11;;;;;;;5.47;4.28;;;17.70;85.60;;;;;;5094501;28;20039;-56
2022/06/02 10:59:24;;;;;;;5.68;4.47;;;18.10;83.80;;;;;;5076760;28;20062;-56
2022/06/02 11:02:49;;;;;;;6.70;3.90;;;18.20;83.00;;;;;;5092256;28;20035;-56
2022/06/02 11:05:33;;;;;;;5.90;4.30;;;18.10;83.30;;;;;;5105733;28;20038;-54
2022/06/02 11:08:51;;;;;;;5.25;3.50;;;18.10;82.90;;;;;;5113211;28;20814;-53
2022/06/02 11:11:48;;;;;;;4.15;3.72;;;18.30;82.10;;;;;;5092335;28;20483;-53
2022/06/02 11:15:11;;;;;;;4.13;3.72;;;18.30;81.80;;;;;;5091713;28;20063;-54
2022/06/02 11:18:29;;;;;;;6.13;4.00;;;18.50;81.30;;;;;;5099959;28;20115;-51
2022/06/02 11:21:51;;;;;;;3.92;3.55;;;18.70;80.90;;;;;;5112960;28;20077;-57
2022/06/02 11:24:55;;;;;;;4.55;3.58;;;18.90;81.00;;;;;;5067876;28;20549;-53
2022/06/02 11:28:20;;;;;;;4.45;4.05;;;18.80;79.10;;;;;;5099714;28;20111;-55
2022/06/02 11:31:36;;;;;;;5.53;3.80;;;18.60;79.60;;;;;;5112194;28;20190;-55
2022/06/02 11:34:48;;;;;;;5.10;3.60;;;18.50;80.10;;;;;;5071211;28;20119;-53
2022/06/02 11:38:04;;;;;;;5.43;4.00;;;18.70;79.20;;;;;;5100945;28;20030;-56
2022/06/02 11:41:07;;;;;;;4.22;3.78;;;18.40;80.20;;;;;;5115086;28;20070;-53
2022/06/02 11:44:09;;;;;;;3.63;3.33;;;18.20;80.70;;;;;;5129059;27;20034;-56
2022/06/02 11:47:12;;;;;;;5.35;3.90;;;18.40;80.00;;;;;;5120827;27;20026;-50
2022/06/02 11:50:17;;;;;;;4.72;4.10;;;18.60;79.10;;;;;;5096021;28;20039;-57
2022/06/02 11:53:12;;;;;;;11.45;4.30;;;18.90;78.00;;;;;;5080808;28;20082;-57
2022/06/02 11:56:12;;;;;;;4.80;4.15;;;19.10;77.80;;;;;;5083602;28;20089;-59
2022/06/02 11:59:39;;;;;;;5.78;4.35;;;19.20;78.40;;;;;;5114981;28;20094;-53
2022/06/02 12:02:42;;;;;;;;;;;19.20;77.30;;;;;;5099218;28;20553;-53
2022/06/02 12:05:51;;;;;;;5.28;4.07;;;19.20;78.00;;;;;;5095581;28;19991;-53
2022/06/02 12:09:00;;;;;;;4.47;3.63;;;19.40;77.50;;;;;;5115302;28;20090;-50
2022/06/02 12:12:12;;;;;;;4.47;3.72;;;19.50;77.60;;;;;;5104178;28;20031;-51
2022/06/02 12:15:12;;;;;;;4.88;4.25;;;19.80;76.70;;;;;;5094707;28;20074;-52
2022/06/02 12:18:19;;;;;;;4.78;3.90;;;20.10;74.60;;;;;;5079227;28;20038;-55
2022/06/02 12:21:22;;;;;;;6.32;3.80;;;19.90;75.50;;;;;;5082455;28;20034;-55
2022/06/02 12:24:45;;;;;;;3.92;3.60;;;19.90;76.00;;;;;;5100930;28;20018;-56
2022/06/02 12:28:07;;;;;;;4.70;3.90;;;19.50;75.40;;;;;;5116089;28;20074;-54
2022/06/02 12:31:30;;;;;;;4.75;3.95;;;19.70;75.90;;;;;;5115227;28;20089;-54
2022/06/02 12:34:50;;;;;;;3.97;3.33;;;19.90;75.50;;;;;;5095952;28;20102;-55
2022/06/02 12:38:10;;;;;;;6.75;4.20;;;20.10;75.10;;;;;;5039413;28;20032;-57
2022/06/02 12:41:16;;;;;;;10.73;6.00;;;20.20;75.30;;;;;;5096394;28;20034;-56
2022/06/02 12:44:22;;;;;;;7.03;4.30;;;20.30;75.80;;;;;;5117628;27;20037;-59
2022/06/02 12:47:24;;;;;;;6.15;4.68;;;20.30;74.20;;;;;;5108936;28;20102;-53
2022/06/02 12:50:41;;;;;;;9.27;6.28;;;20.60;74.40;;;;;;5116639;28;20039;-52
2022/06/02 12:53:46;;;;;;;4.40;4.00;;;20.90;74.30;;;;;;5067579;28;20067;-55
2022/06/02 12:56:55;;;;;;;6.55;4.00;;;20.80;72.30;;;;;;5088832;28;20113;-53
2022/06/02 13:00:16;;;;;;;4.80;4.30;;;20.70;71.70;;;;;;5115634;28;20148;-58
2022/06/02 13:03:42;;;;;;;4.85;3.20;;;21.20;71.10;;;;;;5090275;28;20167;-55
2022/06/02 13:06:41;;;;;;;6.43;3.90;;;21.60;71.70;;;;;;5091079;28;20711;-54
2022/06/02 13:09:47;;;;;;;7.88;5.50;;;21.70;71.20;;;;;;5094310;28;20062;-53
2022/06/02 13:13:10;;;;;;;7.55;3.33;;;21.10;71.40;;;;;;5110586;28;20084;-54
2022/06/02 13:16:26;;;;;;;8.48;3.90;;;20.80;71.60;;;;;;5089813;28;20465;-55
2022/06/02 13:19:23;;;;;;;4.50;3.80;;;20.60;71.00;;;;;;5096222;28;20433;-59
2022/06/02 13:22:40;;;;;;;8.25;3.47;;;20.50;72.20;;;;;;5095479;28;20106;-56
2022/06/02 13:25:29;;;;;;;3.80;3.40;;;20.50;72.40;;;;;;5098634;28;20058;-56
2022/06/02 13:29:02;;;;;;;9.85;4.88;;;20.90;72.50;;;;;;5113452;28;20545;-54
2022/06/02 13:32:21;;;;;;;4.47;4.07;;;21.10;71.70;;;;;;5114988;28;20043;-54
2022/06/02 13:35:28;;;;;;;5.18;3.53;;;21.10;70.30;;;;;;5099376;28;20023;-58
2022/06/02 13:38:24;;;;;;;5.15;3.25;;;21.20;71.50;;;;;;5094227;28;20078;-55
2022/06/02 13:41:35;;;;;;;4.20;3.20;;;21.40;71.00;;;;;;5100469;28;20118;-52
2022/06/02 13:44:28;;;;;;;6.57;3.67;;;21.70;69.80;;;;;;5132701;27;20026;-56
2022/06/02 13:47:42;;;;;;;4.40;3.50;;;22.40;70.10;;;;;;5122179;27;20049;-55
2022/06/02 13:50:44;;;;;;;5.40;3.50;;;22.60;68.70;;;;;;5122947;27;20095;-57
2022/06/02 13:53:34;;;;;;;6.40;4.20;;;22.00;68.70;;;;;;5109018;28;20490;-55
2022/06/02 14:00:07;;;;;;;4.57;3.70;;;21.50;69.10;;;;;;5095978;28;20482;-56
2022/06/02 14:03:21;;;;;;;4.78;3.38;;;21.70;69.30;;;;;;5112467;28;20035;-52
2022/06/02 14:06:11;;;;;;;6.63;3.67;;;22.40;67.80;;;;;;5107646;28;20031;-56
2022/06/02 14:09:37;;;;;;;4.28;3.08;;;22.30;67.00;;;;;;5092726;28;20027;-54
2022/06/02 14:12:21;;;;;;;7.15;3.83;;;22.40;65.80;;;;;;5045668;28;20507;-55
2022/06/02 14:15:36;;;;;;;4.60;4.00;;;22.90;65.90;;;;;;5036396;28;20077;-55
2022/06/02 14:18:46;;;;;;;4.13;2.75;;;23.30;65.50;;;;;;5096359;28;20074;-54
2022/06/02 14:21:52;;;;;;;4.45;3.00;;;23.30;64.30;;;;;;5122003;27;20115;-51
2022/06/02 14:24:45;;;;;;;2.83;2.40;;;23.30;65.30;;;;;;5113982;28;20019;-55
2022/06/02 14:27:49;;;;;;;6.63;3.60;;;24.00;64.30;;;;;;5112424;28;20038;-53
2022/06/02 14:30:43;;;;;;;7.68;3.35;;;24.30;63.80;;;;;;5105464;28;20035;-54
2022/06/02 14:33:30;;;;;;;3.22;2.92;;;24.50;62.30;;;;;;5107967;28;20066;-57
2022/06/02 14:36:29;;;;;;;4.45;2.92;;;24.30;62.10;;;;;;5091808;28;20024;-56
2022/06/02 14:39:22;;;;;;;4.90;3.00;;;23.90;63.00;;;;;;5100136;28;20051;-55
2022/06/02 14:43:04;;;;;;;4.45;3.50;;;24.00;62.30;;;;;;5105202;28;20074;-52
2022/06/02 14:46:00;;;;;;;5.63;2.80;;;23.80;62.60;;;;;;5109098;28;20038;-56
2022/06/02 14:49:06;;;;;;;4.50;2.50;;;23.90;62.70;;;;;;5112799;28;20051;-54
2022/06/02 14:52:27;;;;;;;3.00;2.72;;;24.00;62.50;;;;;;5097159;28;20027;-52
2022/06/02 14:55:46;;;;;;;3.55;3.03;;;23.60;63.60;;;;;;5092249;28;20510;-56
2022/06/02 14:58:39;;;;;;;3.80;3.08;;;23.20;63.30;;;;;;5098761;28;20085;-57
2022/06/02 15:01:53;;;;;;;3.95;3.25;;;22.80;63.10;;;;;;5097086;28;20074;-55
2022/06/02 15:05:03;;;;;;;3.10;2.70;;;22.20;64.60;;;;;;5092385;28;20039;-52
2022/06/02 15:08:10;;;;;;;4.95;3.25;;;22.00;65.20;;;;;;5096563;28;20095;-53
2022/06/02 15:11:05;;;;;;;4.70;3.08;;;21.80;65.90;;;;;;5116924;28;20113;-56
2022/06/02 15:14:03;;;;;;;4.50;4.03;;;21.70;65.20;;;;;;5115658;28;20093;-57
2022/06/02 15:16:51;;;;;;;3.30;3.00;;;21.70;65.70;;;;;;5114853;28;20038;-50
2022/06/02 15:19:44;;;;;;;3.67;3.20;;;22.00;65.10;;;;;;5114514;28;20034;-64
2022/06/02 15:22:39;;;;;;;4.47;3.72;;;21.70;64.60;;;;;;5098000;28;20059;-53
2022/06/02 15:25:34;;;;;;;4.00;3.58;;;21.80;65.00;;;;;;5098725;28;20023;-55
2022/06/02 15:28:26;;;;;;;9.38;4.50;;;21.80;64.80;;;;;;5100883;28;20042;-56
2022/06/02 15:31:18;;;;;;;9.63;7.05;;;21.90;64.90;;;;;;5082588;28;20541;-52
2022/06/02 15:34:34;;;;;;;13.65;4.57;;;21.90;64.70;;;;;;5110563;28;20035;-57
2022/06/02 15:38:16;;;;;;;8.85;4.00;;;22.00;64.80;;;;;;5100398;28;20026;-53
2022/06/02 15:41:27;;;;;;;6.05;3.50;;;22.00;64.70;;;;;;5110105;28;20084;-53
2022/06/02 15:44:33;;;;;;;5.65;2.95;;;21.90;64.70;;;;;;5125704;27;20073;-55
2022/06/02 15:47:51;;;;;;;24.17;18.65;;;22.00;64.80;;;;;;5115293;28;20086;-53
2022/06/02 15:50:50;;;;;;;28.00;18.20;;;22.20;65.10;;;;;;5115255;28;20074;-55
2022/06/02 15:53:38;;;;;;;7.90;5.93;;;22.70;65.30;;;;;;5113762;28;20043;-56
2022/06/02 15:57:00;;;;;;;6.03;3.60;;;23.30;64.40;;;;;;5114135;28;20057;-55
2022/06/02 16:00:15;;;;;;;20.58;5.05;;;24.30;61.20;;;;;;5099164;27;20091;-63
2022/06/02 16:03:02;;;;;;;12.10;3.10;;;25.00;61.20;;;;;;5111132;28;20027;-54
2022/06/02 16:06:27;;;;;;;5.18;2.85;;;25.90;61.20;;;;;;5114627;27;20034;-53
2022/06/02 16:12:41;;;;;;;3.60;2.67;;;27.20;57.20;;;;;;5114037;28;19911;-53
2022/06/02 16:16:07;;;;;;;5.32;3.50;;;27.70;56.30;;;;;;5112007;28;20026;-55